Time;durP1;ratioP1;P1;durP2;ratioP2;P2;SDS_P1;SDS_P2;PMS_P1;PMS_P2;Temp;Humidity;BMP_temperature;BMP_pressure;BME280_temperature;BME280_humidity;BME280_pressure;Samples;Min_cycle;Max_cycle;Signal;HPM_P1;HPM_P2
2022/04/16 00:02:20;;;;;;;2.20;1.05;;;12.60;69.50;;;;;;20636129;28;20038;-74
2022/04/16 00:12:21;;;;;;;1.65;0.90;;;12.60;69.50;;;;;;20684303;28;20022;-75
2022/04/16 00:22:23;;;;;;;1.67;1.00;;;12.50;69.40;;;;;;20652022;28;20121;-74
2022/04/16 00:32:24;;;;;;;2.22;1.38;;;12.50;69.40;;;;;;20650529;28;20030;-76
2022/04/16 00:42:24;;;;;;;1.67;1.03;;;12.50;69.40;;;;;;20638107;28;20049;-76
2022/04/16 00:52:25;;;;;;;1.45;0.70;;;12.50;69.40;;;;;;20654072;28;20309;-76
2022/04/16 01:02:25;;;;;;;1.92;1.10;;;12.50;69.40;;;;;;20638785;28;20081;-75
2022/04/16 01:12:26;;;;;;;2.50;1.10;;;12.50;69.40;;;;;;20635411;28;20077;-75
2022/04/16 01:22:29;;;;;;;0.93;0.70;;;12.50;69.30;;;;;;20651730;28;20049;-75
2022/04/16 01:32:32;;;;;;;2.63;1.05;;;12.50;69.30;;;;;;20636600;28;20500;-74
2022/04/16 01:42:33;;;;;;;1.38;0.80;;;12.50;69.20;;;;;;20634321;28;20043;-75
2022/04/16 01:52:37;;;;;;;1.67;0.83;;;12.40;68.90;;;;;;20664960;28;20034;-75
2022/04/16 02:02:38;;;;;;;1.83;0.60;;;12.40;68.80;;;;;;20648042;28;20312;-75
2022/04/16 02:12:38;;;;;;;3.10;1.25;;;12.40;68.70;;;;;;20647119;28;20035;-75
2022/04/16 02:22:44;;;;;;;1.02;0.63;;;12.40;68.60;;;;;;20630332;28;20048;-76
2022/04/16 02:32:52;;;;;;;1.60;1.00;;;12.30;68.40;;;;;;20982590;22;20050;-76
2022/04/16 02:42:53;;;;;;;0.93;0.63;;;12.30;68.40;;;;;;20629149;28;20050;-75
2022/04/16 02:52:58;;;;;;;1.95;0.65;;;12.30;68.30;;;;;;20630450;28;20100;-75
2022/04/16 03:02:58;;;;;;;0.68;0.63;;;12.30;68.20;;;;;;20627559;28;20395;-75
2022/04/16 03:12:59;;;;;;;1.42;0.82;;;12.30;68.10;;;;;;20664590;28;20037;-76
2022/04/16 03:23:00;;;;;;;1.08;0.60;;;12.30;68.10;;;;;;20723101;28;20038;-76
2022/04/16 03:33:00;;;;;;;1.60;1.00;;;12.20;67.90;;;;;;20691632;28;20480;-75
2022/04/16 03:43:01;;;;;;;1.20;0.63;;;12.20;67.80;;;;;;20691318;28;20057;-75
2022/04/16 03:53:02;;;;;;;1.35;0.55;;;12.20;67.80;;;;;;20690764;28;20061;-76
2022/04/16 04:03:03;;;;;;;3.30;0.75;;;12.20;67.70;;;;;;20705976;28;20049;-75
2022/04/16 04:13:03;;;;;;;2.85;0.70;;;12.20;67.70;;;;;;20714868;28;20456;-74
2022/04/16 04:23:04;;;;;;;0.80;0.57;;;12.20;67.50;;;;;;20736688;28;20056;-75
2022/04/16 04:33:05;;;;;;;0.95;0.80;;;12.10;67.40;;;;;;20720341;28;20068;-75
2022/04/16 04:43:05;;;;;;;1.08;0.70;;;12.10;67.20;;;;;;20735216;28;20120;-76
2022/04/16 04:53:06;;;;;;;1.88;0.88;;;12.10;67.10;;;;;;20720018;28;20037;-75
2022/04/16 05:03:06;;;;;;;0.85;0.60;;;12.10;67.00;;;;;;20701362;28;20045;-75
2022/04/16 05:13:07;;;;;;;1.17;0.60;;;12.10;66.80;;;;;;20714316;28;20186;-76
2022/04/16 05:23:08;;;;;;;1.73;0.70;;;12.00;66.70;;;;;;20636744;28;20073;-75
2022/04/16 05:34:18;;;;;;;0.82;0.70;;;12.00;67.40;;;;;;20620225;28;20038;-76
2022/04/16 05:43:29;;;;;;;1.42;0.80;;;12.00;66.70;;;;;;20636547;28;20432;-75
2022/04/16 05:53:30;;;;;;;0.93;0.52;;;12.00;66.70;;;;;;20632732;28;20026;-74
2022/04/16 06:03:30;;;;;;;1.48;0.70;;;12.00;66.80;;;;;;20617076;28;20046;-75
2022/04/16 06:13:31;;;;;;;1.48;0.68;;;12.00;66.90;;;;;;20647337;28;20123;-74
2022/04/16 06:23:32;;;;;;;0.93;0.60;;;12.00;67.00;;;;;;20614424;28;20038;-75
2022/04/16 06:33:32;;;;;;;1.00;0.55;;;12.00;67.00;;;;;;20660607;28;20029;-76
2022/04/16 06:43:33;;;;;;;0.85;0.80;;;12.00;67.10;;;;;;20710257;28;20610;-75
2022/04/16 06:53:35;;;;;;;1.13;0.65;;;12.00;67.10;;;;;;20694106;28;20453;-74
2022/04/16 07:03:36;;;;;;;0.80;0.45;;;12.00;67.20;;;;;;20700508;28;20124;-75
2022/04/16 07:13:36;;;;;;;0.65;0.50;;;12.10;67.20;;;;;;20708229;28;20026;-74
2022/04/16 07:23:37;;;;;;;0.88;0.50;;;12.10;67.20;;;;;;20691220;28;20041;-76
2022/04/16 07:33:38;;;;;;;0.98;0.43;;;12.00;67.20;;;;;;20707408;28;20124;-75
2022/04/16 07:43:38;;;;;;;1.92;1.20;;;12.10;67.20;;;;;;20710286;28;20056;-75
2022/04/16 07:53:39;;;;;;;0.40;0.35;;;12.10;67.20;;;;;;20723285;28;20125;-74
2022/04/16 08:03:39;;;;;;;0.75;0.40;;;12.10;67.20;;;;;;20722331;28;20038;-74
2022/04/16 08:13:40;;;;;;;0.65;0.30;;;12.10;67.50;;;;;;20721515;28;20033;-74
2022/04/16 08:23:54;;;;;;;0.50;0.30;;;12.20;67.20;;;;;;20704501;28;20041;-73
2022/04/16 08:33:55;;;;;;;0.50;0.30;;;12.10;67.00;;;;;;20705717;28;20041;-75
2022/04/16 08:43:56;;;;;;;0.67;0.33;;;12.10;67.00;;;;;;20703331;28;20429;-74
2022/04/16 08:53:56;;;;;;;0.35;0.30;;;12.10;67.00;;;;;;20717911;28;20316;-75
2022/04/16 09:03:58;;;;;;;0.50;0.30;;;12.20;67.00;;;;;;20719031;28;20109;-76
2022/04/16 09:13:59;;;;;;;0.40;0.40;;;12.20;66.90;;;;;;20717065;28;20030;-75
2022/04/16 09:24:00;;;;;;;1.48;0.30;;;12.20;66.80;;;;;;20731492;28;20141;-76
2022/04/16 09:34:01;;;;;;;0.20;0.20;;;12.20;66.80;;;;;;20714597;28;20038;-75
2022/04/16 09:44:02;;;;;;;0.70;0.45;;;12.20;66.70;;;;;;20714540;28;20049;-75
2022/04/16 09:54:04;;;;;;;0.85;0.20;;;12.20;66.70;;;;;;20712917;28;20041;-75
2022/04/16 10:04:08;;;;;;;0.52;0.20;;;12.20;66.70;;;;;;20728757;28;20037;-75
2022/04/16 10:14:22;;;;;;;0.22;0.20;;;12.10;66.60;;;;;;20695735;28;20040;-76
2022/04/16 10:24:26;;;;;;;0.13;0.13;;;12.20;66.60;;;;;;20695273;28;20042;-75
2022/04/16 10:34:30;;;;;;;0.35;0.25;;;12.10;66.50;;;;;;20710553;28;20388;-76
2022/04/16 10:44:42;;;;;;;0.30;0.13;;;12.10;66.50;;;;;;20725946;28;20041;-75
2022/04/16 10:54:43;;;;;;;0.30;0.30;;;12.10;66.60;;;;;;20692740;28;20131;-76
2022/04/16 11:05:12;;;;;;;0.30;0.20;;;12.10;66.50;;;;;;20724469;28;20168;-75
2022/04/16 11:15:24;;;;;;;0.30;0.20;;;12.10;66.50;;;;;;20691437;28;20379;-75
2022/04/16 11:25:25;;;;;;;0.10;0.10;;;12.10;66.50;;;;;;20706460;28;20370;-75
2022/04/16 11:35:26;;;;;;;0.10;0.10;;;12.10;66.50;;;;;;20707040;28;20467;-76
2022/04/16 11:45:26;;;;;;;1.58;0.20;;;12.10;66.50;;;;;;20706625;28;20038;-76
2022/04/16 11:55:27;;;;;;;0.20;0.20;;;12.10;66.50;;;;;;20706074;28;20034;-75
2022/04/16 12:05:28;;;;;;;0.10;0.10;;;12.10;66.50;;;;;;20689489;28;20328;-75
2022/04/16 12:15:29;;;;;;;0.65;0.25;;;12.10;66.50;;;;;;20706804;28;20715;-75
2022/04/16 12:25:30;;;;;;;0.28;0.28;;;12.10;66.50;;;;;;20614962;28;20046;-75
2022/04/16 12:35:34;;;;;;;0.38;0.20;;;12.00;66.30;;;;;;20634654;28;20481;-76
2022/04/16 12:45:35;;;;;;;0.22;0.20;;;12.00;66.30;;;;;;20623721;28;20497;-76
2022/04/16 12:55:35;;;;;;;0.20;0.20;;;12.10;66.30;;;;;;20637418;28;20026;-76
2022/04/16 13:05:36;;;;;;;0.13;0.13;;;12.00;66.20;;;;;;20636660;28;20656;-77
2022/04/16 13:15:37;;;;;;;0.60;0.20;;;12.00;66.20;;;;;;20652160;28;20093;-77
2022/04/16 13:25:37;;;;;;;0.10;0.10;;;12.10;66.30;;;;;;20635396;28;20301;-77
2022/04/16 13:35:38;;;;;;;0.15;0.15;;;12.10;66.30;;;;;;20635756;28;20046;-76
2022/04/16 13:45:38;;;;;;;0.20;0.10;;;12.10;66.20;;;;;;20649853;28;20113;-77
2022/04/16 13:55:39;;;;;;;0.25;0.25;;;12.20;66.20;;;;;;20617027;28;20441;-77
2022/04/16 14:05:45;;;;;;;0.20;0.20;;;12.20;66.00;;;;;;20616084;28;20382;-76
2022/04/16 14:15:46;;;;;;;0.10;0.10;;;12.30;65.90;;;;;;20648273;28;20080;-78
2022/04/16 14:25:47;;;;;;;0.45;0.20;;;12.30;65.80;;;;;;20630188;28;20125;-77
2022/04/16 14:35:48;;;;;;;0.10;0.10;;;12.40;65.60;;;;;;20613771;28;20038;-77
2022/04/16 14:45:48;;;;;;;0.10;0.10;;;12.50;65.50;;;;;;20631487;28;20417;-77
2022/04/16 14:55:49;;;;;;;0.10;0.10;;;12.60;65.20;;;;;;20683890;28;20034;-77
2022/04/16 15:05:50;;;;;;;0.52;0.10;;;12.80;65.70;;;;;;20700425;28;20038;-78
2022/04/16 15:15:51;;;;;;;0.10;0.10;;;12.90;64.80;;;;;;20724719;28;20041;-77
2022/04/16 15:25:51;;;;;;;0.40;0.10;;;13.00;64.60;;;;;;20692795;28;20165;-77
2022/04/16 15:35:52;;;;;;;0.10;0.10;;;13.10;64.40;;;;;;20698970;28;20029;-76
2022/04/16 15:45:52;;;;;;;0.47;0.30;;;13.20;64.30;;;;;;20723337;28;20041;-77
2022/04/16 15:55:53;;;;;;;0.90;0.10;;;13.20;64.10;;;;;;20723153;28;20456;-77
2022/04/16 16:05:54;;;;;;;0.25;0.10;;;13.30;63.90;;;;;;20728265;28;20483;-77
2022/04/16 16:15:55;;;;;;;0.10;0.10;;;13.30;63.80;;;;;;20705074;28;20133;-78
2022/04/16 16:25:56;;;;;;;0.10;0.10;;;13.30;63.70;;;;;;20720587;28;20425;-78
2022/04/16 16:35:57;;;;;;;0.08;0.08;;;13.40;63.60;;;;;;20736231;28;20068;-77
2022/04/16 16:45:59;;;;;;;0.10;0.10;;;13.30;63.50;;;;;;20703373;28;20111;-78
2022/04/16 16:55:59;;;;;;;0.10;0.10;;;13.30;63.60;;;;;;20751987;28;20034;-77
2022/04/16 17:06:00;;;;;;;0.60;0.20;;;13.30;63.60;;;;;;20717717;28;20056;-77
2022/04/16 17:26:19;;;;;;;0.32;0.13;;;13.20;63.70;;;;;;20735052;28;20381;-77
2022/04/16 17:36:20;;;;;;;0.20;0.13;;;13.20;63.90;;;;;;20716298;28;20152;-77
2022/04/16 17:46:20;;;;;;;0.20;0.10;;;13.10;64.00;;;;;;20714883;28;20362;-77
2022/04/16 17:56:21;;;;;;;0.00;0.00;;;13.10;64.20;;;;;;20714612;28;20492;-77
2022/04/16 18:06:23;;;;;;;0.10;0.10;;;13.00;64.30;;;;;;20729249;28;20046;-77
2022/04/16 18:16:24;;;;;;;0.38;0.20;;;13.00;64.60;;;;;;20712271;28;20022;-76
2022/04/16 18:26:27;;;;;;;0.30;0.10;;;12.90;64.60;;;;;;20726374;28;20038;-76
2022/04/16 18:36:28;;;;;;;0.40;0.10;;;12.90;64.80;;;;;;20744375;28;20378;-76
2022/04/16 18:46:28;;;;;;;0.40;0.20;;;12.80;64.90;;;;;;20710367;28;20049;-76
2022/04/16 18:56:29;;;;;;;0.47;0.20;;;12.80;65.00;;;;;;20693914;28;20121;-77
2022/04/16 19:16:50;;;;;;;0.10;0.10;;;12.70;65.00;;;;;;20681974;28;20069;-77
2022/04/16 19:26:51;;;;;;;0.30;0.10;;;12.70;65.00;;;;;;20626805;28;20485;-77
2022/04/16 19:36:52;;;;;;;0.17;0.15;;;12.60;64.90;;;;;;20659895;28;20240;-76
2022/04/16 19:46:52;;;;;;;0.75;0.28;;;12.60;64.80;;;;;;20641869;28;20081;-76
2022/04/16 19:56:53;;;;;;;1.60;0.20;;;12.60;64.80;;;;;;20642679;28;20053;-76
2022/04/16 20:06:53;;;;;;;0.63;0.30;;;12.50;64.60;;;;;;20641368;28;20039;-76
2022/04/16 20:16:54;;;;;;;0.80;0.40;;;12.50;64.50;;;;;;20657258;28;20348;-77
2022/04/16 20:26:56;;;;;;;0.25;0.25;;;12.50;64.30;;;;;;20639959;28;20118;-77
2022/04/16 20:36:57;;;;;;;0.30;0.30;;;12.50;64.30;;;;;;20607085;28;20038;-77
2022/04/16 20:46:57;;;;;;;1.10;0.30;;;12.50;64.30;;;;;;20638814;28;20128;-77
2022/04/16 20:56:58;;;;;;;1.92;0.40;;;12.50;64.20;;;;;;20636201;28;20029;-77
2022/04/16 21:06:58;;;;;;;0.82;0.52;;;12.40;64.00;;;;;;20622388;28;20110;-77
2022/04/16 21:17:00;;;;;;;0.85;0.30;;;12.40;63.90;;;;;;20636121;28;20042;-77
2022/04/16 21:27:01;;;;;;;0.95;0.65;;;12.40;63.80;;;;;;20620739;28;20041;-77
2022/04/16 21:37:01;;;;;;;1.40;0.60;;;12.40;63.70;;;;;;20635149;28;20026;-77
2022/04/16 21:47:02;;;;;;;1.48;0.82;;;12.40;63.70;;;;;;20633876;28;20066;-77
2022/04/16 21:57:03;;;;;;;1.73;0.80;;;12.40;63.60;;;;;;20650873;28;20121;-76
2022/04/16 22:07:03;;;;;;;3.78;1.58;;;12.40;63.60;;;;;;20631677;28;20034;-77
2022/04/16 22:17:04;;;;;;;1.00;0.60;;;12.40;63.60;;;;;;20615159;28;20038;-76
2022/04/16 22:27:04;;;;;;;0.85;0.77;;;12.30;63.50;;;;;;20630650;28;20121;-76
2022/04/16 22:47:24;;;;;;;1.52;0.73;;;12.30;63.30;;;;;;20634341;28;20039;-77
2022/04/16 22:57:25;;;;;;;2.30;1.10;;;12.30;63.20;;;;;;20628598;28;20507;-76
2022/04/16 23:07:25;;;;;;;2.00;0.80;;;12.30;63.20;;;;;;20644079;28;20030;-77
2022/04/16 23:17:26;;;;;;;2.00;1.30;;;12.30;63.10;;;;;;20611235;28;20356;-77
2022/04/16 23:27:26;;;;;;;3.47;1.65;;;12.20;63.00;;;;;;20643913;28;20092;-76
2022/04/16 23:37:27;;;;;;;3.85;1.95;;;12.20;62.90;;;;;;20626433;28;20424;-76
2022/04/16 23:47:27;;;;;;;2.97;1.75;;;12.20;62.80;;;;;;20628041;28;20045;-76
2022/04/16 23:57:28;;;;;;;2.63;1.67;;;12.20;62.70;;;;;;20610065;28;20540;-76
